Time;durP1;ratioP1;P1;durP2;ratioP2;P2;SDS_P1;SDS_P2;PMS_P1;PMS_P2;Temp;Humidity;BMP_temperature;BMP_pressure;BME280_temperature;BME280_humidity;BME280_pressure;Samples;Min_cycle;Max_cycle;Signal;HPM_P1;HPM_P2
2021/05/04 00:00:39;;;;;;;7.13;5.37;;;;;;;6.43;66.85;99940.81;2051262;28;20178;-62
2021/05/04 00:01:39;;;;;;;7.70;5.67;;;;;;;6.37;66.88;99940.94;2049141;28;20121;-61
2021/05/04 00:02:40;;;;;;;6.13;5.33;;;;;;;6.35;67.15;99937.50;2051242;28;20768;-61
2021/05/04 00:03:40;;;;;;;6.97;5.63;;;;;;;6.28;67.44;99943.69;2042638;28;20155;-61
2021/05/04 00:04:41;;;;;;;6.83;5.20;;;;;;;6.42;67.19;99939.09;2048658;28;20588;-61
2021/05/04 00:05:41;;;;;;;5.40;4.90;;;;;;;6.34;67.11;99938.38;2061535;28;20096;-62
2021/05/04 00:06:42;;;;;;;8.30;5.38;;;;;;;6.38;67.64;99937.47;2056279;28;20554;-61
2021/05/04 00:07:42;;;;;;;5.40;4.90;;;;;;;6.31;67.33;99936.72;2052163;28;20058;-62
2021/05/04 00:08:42;;;;;;;5.83;5.07;;;;;;;6.27;67.63;99932.44;2048323;28;20058;-61
2021/05/04 00:09:43;;;;;;;5.03;4.53;;;;;;;6.28;67.85;99931.56;2052231;28;20102;-61
2021/05/04 00:10:43;;;;;;;6.37;4.77;;;;;;;6.28;67.86;99933.31;2053649;28;20034;-62
2021/05/04 00:11:43;;;;;;;5.50;4.13;;;;;;;6.51;67.12;99938.09;2054008;28;20105;-62
2021/05/04 00:12:45;;;;;;;7.53;4.97;;;;;;;6.53;67.11;99929.41;2050902;28;20077;-62
2021/05/04 00:13:45;;;;;;;6.80;4.78;;;;;;;6.53;66.94;99926.81;2049765;28;20102;-61
2021/05/04 00:14:45;;;;;;;5.50;4.67;;;;;;;6.51;67.14;99928.63;2048863;28;20027;-61
2021/05/04 00:15:46;;;;;;;5.83;4.30;;;;;;;6.52;66.91;99925.13;2048874;28;20031;-62
2021/05/04 00:16:46;;;;;;;5.20;4.50;;;;;;;6.59;66.81;99925.88;2051170;28;20023;-62
2021/05/04 00:17:47;;;;;;;5.13;4.43;;;;;;;6.66;66.29;99922.28;2050077;28;20030;-61
2021/05/04 00:18:47;;;;;;;5.03;4.33;;;;;;;6.74;65.94;99924.72;2048444;28;20134;-62
2021/05/04 00:19:47;;;;;;;7.10;4.37;;;;;;;6.77;65.70;99922.09;2047138;28;20023;-62
2021/05/04 00:20:48;;;;;;;4.67;4.17;;;;;;;6.84;65.58;99915.91;2048386;28;20030;-62
2021/05/04 00:21:48;;;;;;;5.07;4.37;;;;;;;6.84;65.25;99923.66;2052560;28;20035;-62
2021/05/04 00:22:48;;;;;;;5.03;3.77;;;;;;;6.87;65.18;99911.53;2053177;28;20081;-62
2021/05/04 00:23:49;;;;;;;5.97;3.97;;;;;;;7.00;64.52;99919.03;2053538;28;20058;-62
2021/05/04 00:24:49;;;;;;;9.50;4.40;;;;;;;6.94;64.92;99915.72;2052333;28;20054;-62
2021/05/04 00:25:49;;;;;;;6.47;4.50;;;;;;;7.08;64.42;99913.72;2053736;28;20639;-62
2021/05/04 00:26:50;;;;;;;4.87;4.10;;;;;;;7.06;64.27;99909.41;2053969;28;20051;-62
2021/05/04 00:27:50;;;;;;;7.33;4.03;;;;;;;7.00;64.67;99916.44;2054122;28;20122;-62
2021/05/04 00:28:51;;;;;;;5.40;4.27;;;;;;;7.03;64.42;99909.50;2047415;28;20027;-62
2021/05/04 00:29:51;;;;;;;4.68;3.92;;;;;;;7.07;64.28;99912.00;2052600;28;20037;-62
2021/05/04 00:30:52;;;;;;;4.63;4.03;;;;;;;7.22;63.90;99913.44;2052038;28;20042;-62
2021/05/04 00:31:52;;;;;;;5.63;4.00;;;;;;;7.19;63.67;99912.63;2050160;28;20325;-61
2021/05/04 00:32:52;;;;;;;5.47;3.97;;;;;;;7.15;63.63;99904.09;2051532;28;20033;-61
2021/05/04 00:33:53;;;;;;;5.23;3.80;;;;;;;7.28;63.00;99905.50;2047098;28;20087;-61
2021/05/04 00:34:53;;;;;;;6.45;4.10;;;;;;;7.24;63.24;99909.06;2051354;28;20471;-62
2021/05/04 00:35:55;;;;;;;4.77;4.20;;;;;;;7.13;63.75;99896.31;2051357;28;20046;-61
2021/05/04 00:36:56;;;;;;;5.00;4.13;;;;;;;7.24;63.41;99896.09;2049249;28;20049;-61
2021/05/04 00:37:56;;;;;;;4.70;3.40;;;;;;;7.25;63.26;99891.75;2054563;28;20556;-61
2021/05/04 00:38:57;;;;;;;4.67;4.10;;;;;;;7.22;63.30;99899.59;2051175;28;20562;-62
2021/05/04 00:39:57;;;;;;;9.52;4.10;;;;;;;7.21;63.47;99901.34;2053252;28;20494;-62
2021/05/04 00:40:57;;;;;;;9.13;3.97;;;;;;;7.22;63.20;99889.22;2051340;28;20041;-62
2021/05/04 00:41:58;;;;;;;6.00;3.80;;;;;;;7.17;63.41;99897.09;2055410;28;20526;-63
2021/05/04 00:42:58;;;;;;;5.20;4.10;;;;;;;7.13;63.64;99896.31;2050315;28;20440;-63
2021/05/04 00:43:58;;;;;;;10.40;4.30;;;;;;;7.35;63.04;99890.69;2055862;28;20109;-63
2021/05/04 00:44:59;;;;;;;4.87;4.17;;;;;;;7.19;63.56;99889.31;2052598;28;20130;-62
2021/05/04 00:46:00;;;;;;;4.93;4.07;;;;;;;7.20;63.53;99886.69;2055281;28;20042;-63
2021/05/04 00:47:01;;;;;;;4.80;3.95;;;;;;;7.19;63.51;99882.38;2048109;28;20182;-62
2021/05/04 00:48:01;;;;;;;6.27;3.63;;;;;;;7.10;63.82;99883.41;2049420;28;20530;-62
2021/05/04 00:49:02;;;;;;;4.20;3.80;;;;;;;7.03;63.92;99879.25;2055892;28;20752;-62
2021/05/04 00:50:03;;;;;;;5.37;4.00;;;;;;;7.09;63.87;99880.88;2054796;28;20030;-62
2021/05/04 00:51:04;;;;;;;6.93;4.30;;;;;;;7.19;63.57;99871.16;2049436;28;20122;-62
2021/05/04 00:52:04;;;;;;;4.43;4.03;;;;;;;7.10;63.81;99870.44;2055541;28;20034;-62
2021/05/04 00:53:05;;;;;;;4.50;3.90;;;;;;;7.08;64.07;99864.47;2054186;28;20450;-62
2021/05/04 00:54:05;;;;;;;5.77;4.33;;;;;;;7.05;64.23;99868.88;2055466;28;20154;-62
2021/05/04 00:55:06;;;;;;;4.68;3.90;;;;;;;7.20;63.63;99860.75;2053687;28;20111;-61
2021/05/04 00:56:08;;;;;;;5.18;4.07;;;;;;;7.05;64.24;99861.94;2048122;28;20643;-62
2021/05/04 00:57:11;;;;;;;6.05;4.22;;;;;;;6.96;64.44;99856.94;2054905;28;20482;-61
2021/05/04 00:58:12;;;;;;;5.05;3.80;;;;;;;6.87;64.79;99851.97;2053179;28;20062;-62
2021/05/04 00:59:13;;;;;;;5.20;4.10;;;;;;;6.88;64.85;99856.25;2051801;28;20621;-62
2021/05/04 01:00:15;;;;;;;4.38;3.97;;;;;;;6.86;64.99;99851.09;2051065;28;20027;-61
2021/05/04 01:01:15;;;;;;;6.65;4.32;;;;;;;6.83;65.04;99851.19;2049972;28;20073;-62
2021/05/04 01:02:17;;;;;;;5.17;4.03;;;;;;;6.87;64.90;99841.59;2051388;28;20038;-61
2021/05/04 01:03:18;;;;;;;4.78;4.22;;;;;;;6.78;65.29;99845.22;2059883;28;20441;-62
2021/05/04 01:04:20;;;;;;;5.70;4.25;;;;;;;6.74;65.28;99848.78;2057255;28;20034;-62
2021/05/04 01:05:20;;;;;;;4.43;4.03;;;;;;;6.94;64.49;99838.00;2049538;28;20492;-61
2021/05/04 01:06:20;;;;;;;5.17;4.40;;;;;;;6.78;65.21;99834.84;2051751;28;20034;-61
2021/05/04 01:07:21;;;;;;;6.80;4.43;;;;;;;6.77;65.40;99836.63;2053802;28;20034;-61
2021/05/04 01:08:21;;;;;;;5.37;4.30;;;;;;;6.82;65.17;99839.94;2051846;28;20439;-61
2021/05/04 01:09:21;;;;;;;5.47;4.47;;;;;;;6.87;64.92;99829.50;2050917;28;20034;-62
2021/05/04 01:10:22;;;;;;;4.83;4.33;;;;;;;6.82;65.14;99834.75;2047894;28;20277;-62
2021/05/04 01:11:22;;;;;;;6.07;4.22;;;;;;;6.83;65.04;99826.09;2054387;28;20058;-61
2021/05/04 01:12:23;;;;;;;4.40;4.00;;;;;;;6.75;65.42;99830.59;2052293;28;20050;-61
2021/05/04 01:13:23;;;;;;;5.00;4.40;;;;;;;6.76;65.38;99828.88;2050335;28;20066;-61
2021/05/04 01:14:23;;;;;;;6.47;4.40;;;;;;;6.70;65.52;99835.03;2049623;28;20053;-61
2021/05/04 01:15:24;;;;;;;5.67;4.43;;;;;;;6.80;65.19;99821.03;2052438;28;20475;-61
2021/05/04 01:16:24;;;;;;;5.53;4.30;;;;;;;6.78;65.00;99825.38;2053681;28;20476;-61
2021/05/04 01:17:25;;;;;;;5.97;4.60;;;;;;;6.76;65.17;99813.34;2054542;28;20030;-61
2021/05/04 01:18:25;;;;;;;5.53;4.30;;;;;;;6.81;65.07;99814.91;2052826;28;20026;-61
2021/05/04 01:19:25;;;;;;;5.67;4.30;;;;;;;6.81;64.90;99812.34;2050600;28;20285;-61
2021/05/04 01:20:26;;;;;;;5.53;4.27;;;;;;;6.84;64.83;99820.06;2053116;28;20044;-61
2021/05/04 01:21:26;;;;;;;5.72;4.18;;;;;;;6.74;65.26;99810.75;2052237;28;20407;-61
2021/05/04 01:22:27;;;;;;;6.37;5.13;;;;;;;6.80;65.16;99808.06;2050693;28;20721;-61
2021/05/04 01:23:27;;;;;;;6.37;4.23;;;;;;;6.65;65.70;99810.97;2048794;28;20023;-62
2021/05/04 01:24:28;;;;;;;5.57;4.60;;;;;;;6.59;65.97;99806.75;2051809;28;20114;-62
2021/05/04 01:25:28;;;;;;;4.95;4.15;;;;;;;6.62;66.09;99811.00;2053868;28;20027;-62
2021/05/04 01:26:28;;;;;;;4.67;3.90;;;;;;;6.57;66.06;99802.50;2052789;28;20023;-62
2021/05/04 01:27:29;;;;;;;6.73;4.40;;;;;;;6.63;65.87;99802.34;2051168;28;20051;-62
2021/05/04 01:28:30;;;;;;;5.80;4.20;;;;;;;6.59;65.96;99804.16;2050790;28;20026;-62
2021/05/04 01:29:31;;;;;;;5.63;4.40;;;;;;;6.73;65.68;99796.09;2051733;28;20030;-61
2021/05/04 01:30:31;;;;;;;5.37;3.90;;;;;;;6.59;65.91;99796.41;2051445;28;20029;-61
2021/05/04 01:31:32;;;;;;;5.27;3.90;;;;;;;6.50;66.22;99797.44;2051071;28;20032;-62
2021/05/04 01:32:32;;;;;;;6.00;4.07;;;;;;;6.51;66.17;99798.28;2050383;28;20035;-63
2021/05/04 01:33:32;;;;;;;5.37;4.40;;;;;;;6.50;66.51;99799.16;2050086;28;20046;-63
2021/05/04 01:34:34;;;;;;;5.53;3.90;;;;;;;6.42;66.58;99794.13;2049163;28;20488;-63
2021/05/04 01:35:34;;;;;;;6.82;4.25;;;;;;;6.55;66.28;99799.94;2053244;28;20027;-62
2021/05/04 01:36:35;;;;;;;6.13;4.60;;;;;;;6.43;66.59;99792.41;2050478;28;20535;-62
2021/05/04 01:37:37;;;;;;;5.03;4.22;;;;;;;6.42;66.70;99794.13;2048434;28;20038;-62
2021/05/04 01:38:37;;;;;;;5.15;4.40;;;;;;;6.41;66.82;99794.16;2054304;28;20034;-62
2021/05/04 01:39:43;;;;;;;4.93;4.40;;;;;;;6.39;66.93;99791.63;2052215;28;20451;-62
2021/05/04 01:40:43;;;;;;;5.15;3.80;;;;;;;6.37;66.72;99791.63;2051078;28;20527;-63
2021/05/04 01:41:44;;;;;;;4.27;3.87;;;;;;;6.37;66.74;99788.22;2054638;28;20062;-63
2021/05/04 01:42:45;;;;;;;5.17;4.23;;;;;;;6.39;66.56;99792.47;2049504;28;20030;-63
2021/05/04 01:43:46;;;;;;;5.03;4.10;;;;;;;6.43;66.76;99785.50;2053040;28;20027;-61
2021/05/04 01:44:47;;;;;;;6.77;4.10;;;;;;;6.33;66.97;99784.84;2051810;28;20023;-61
2021/05/04 01:45:47;;;;;;;5.13;4.63;;;;;;;6.35;66.81;99788.25;2049608;28;20506;-61
2021/05/04 01:46:47;;;;;;;4.50;4.00;;;;;;;6.31;67.14;99778.81;2051179;28;20062;-61
2021/05/04 01:47:48;;;;;;;4.87;4.37;;;;;;;6.32;66.92;99788.28;2048787;28;20035;-61
2021/05/04 01:48:48;;;;;;;5.80;4.63;;;;;;;6.28;66.99;99788.38;2056375;28;20023;-62
2021/05/04 01:49:48;;;;;;;5.10;4.60;;;;;;;6.46;66.87;99780.25;2054623;28;20484;-62
2021/05/04 01:50:48;;;;;;;5.00;4.47;;;;;;;6.30;66.95;99776.28;2063271;28;20034;-62
2021/05/04 01:51:49;;;;;;;4.80;4.20;;;;;;;6.28;67.37;99776.28;2061740;28;20026;-61
2021/05/04 01:52:49;;;;;;;5.33;4.27;;;;;;;6.26;67.15;99772.03;2053493;28;20082;-62
2021/05/04 01:53:49;;;;;;;6.10;4.60;;;;;;;6.25;67.24;99775.50;2052070;28;20103;-62
2021/05/04 01:54:50;;;;;;;6.30;4.67;;;;;;;6.37;66.77;99770.09;2053718;28;20057;-61
2021/05/04 01:55:51;;;;;;;5.72;4.32;;;;;;;6.42;66.51;99772.59;2049247;28;20522;-62
2021/05/04 01:56:52;;;;;;;6.00;4.57;;;;;;;6.33;67.15;99773.59;2051540;28;20035;-62
2021/05/04 01:57:53;;;;;;;6.15;4.70;;;;;;;6.30;67.09;99769.34;2055410;28;20376;-62
2021/05/04 01:59:01;;;;;;;6.87;4.43;;;;;;;6.35;67.09;99766.66;2051015;28;20046;-62
2021/05/04 02:00:04;;;;;;;5.68;4.32;;;;;;;6.39;66.68;99763.16;2051119;28;20542;-62
2021/05/04 02:01:04;;;;;;;5.07;4.57;;;;;;;6.30;67.15;99759.00;2050037;28;20023;-62
2021/05/04 02:02:04;;;;;;;7.17;4.67;;;;;;;6.33;66.90;99766.72;2053619;28;20051;-60
2021/05/04 02:03:05;;;;;;;7.40;4.97;;;;;;;6.47;66.47;99758.66;2051759;28;20043;-62
2021/05/04 02:04:05;;;;;;;6.53;4.93;;;;;;;6.39;66.58;99763.16;2050950;28;20122;-61
2021/05/04 02:05:06;;;;;;;6.50;4.90;;;;;;;6.48;66.67;99757.78;2054889;28;20034;-63
2021/05/04 02:06:07;;;;;;;5.68;4.70;;;;;;;6.33;67.19;99764.13;2054260;28;20464;-63
2021/05/04 02:07:07;;;;;;;4.90;4.40;;;;;;;6.34;66.94;99754.59;2052671;28;20027;-63
2021/05/04 02:08:07;;;;;;;7.57;4.33;;;;;;;6.32;67.00;99756.41;2051299;28;20122;-62
2021/05/04 02:09:10;;;;;;;6.30;4.40;;;;;;;6.40;66.57;99746.75;2051026;28;20105;-61
2021/05/04 02:10:11;;;;;;;4.75;4.35;;;;;;;6.42;66.54;99747.53;2050241;28;20031;-62
2021/05/04 02:11:12;;;;;;;;;;;;;;;6.38;66.53;99745.91;2058139;28;20045;-62
2021/05/04 02:12:12;;;;;;;5.50;4.32;;;;;;;6.42;66.43;99742.34;2060537;28;19918;-72
2021/05/04 02:13:12;;;;;;;6.33;4.43;;;;;;;6.27;66.76;99735.75;2053990;28;20026;-61
2021/05/04 02:14:13;;;;;;;4.73;4.00;;;;;;;6.30;66.91;99735.72;2053938;28;20026;-61
2021/05/04 02:15:13;;;;;;;4.90;4.47;;;;;;;6.32;66.60;99735.69;2054756;28;20042;-61
2021/05/04 02:16:13;;;;;;;4.60;3.97;;;;;;;6.48;65.93;99731.03;2052854;28;20562;-61
2021/05/04 02:17:14;;;;;;;8.23;4.23;;;;;;;6.50;65.93;99735.31;2050216;28;20037;-61
2021/05/04 02:18:14;;;;;;;5.37;4.10;;;;;;;6.36;66.58;99724.38;2048128;28;20041;-61
2021/05/04 02:19:14;;;;;;;4.40;4.00;;;;;;;6.56;65.88;99723.97;2049891;28;20026;-62
2021/05/04 02:20:15;;;;;;;5.43;4.20;;;;;;;6.49;66.14;99720.66;2050440;28;20035;-62
2021/05/04 02:21:16;;;;;;;5.87;4.43;;;;;;;6.42;66.24;99718.22;2052211;28;20047;-62
2021/05/04 02:22:17;;;;;;;4.75;4.13;;;;;;;6.46;66.11;99718.13;2050429;28;20451;-62
2021/05/04 02:23:17;;;;;;;4.77;4.27;;;;;;;6.50;65.95;99709.44;2054656;28;20031;-62
2021/05/04 02:24:17;;;;;;;7.20;4.53;;;;;;;6.39;66.24;99720.00;2054467;28;20041;-62
2021/05/04 02:25:18;;;;;;;5.20;4.47;;;;;;;6.37;66.34;99713.16;2051121;28;20044;-62
2021/05/04 02:26:18;;;;;;;7.03;4.63;;;;;;;6.41;66.26;99712.22;2053412;28;20106;-62
2021/05/04 02:27:19;;;;;;;4.55;4.15;;;;;;;6.33;66.53;99704.59;2049053;28;20034;-62
2021/05/04 02:28:19;;;;;;;7.07;3.87;;;;;;;6.36;66.37;99704.53;2051746;28;20419;-62
2021/05/04 02:29:19;;;;;;;5.80;4.17;;;;;;;6.38;66.42;99702.75;2050024;28;20030;-62
2021/05/04 02:30:20;;;;;;;7.80;4.10;;;;;;;6.37;66.14;99705.38;2054398;28;20459;-62
2021/05/04 02:31:20;;;;;;;5.35;4.30;;;;;;;6.46;65.98;99701.75;2053392;28;20019;-62
2021/05/04 02:32:20;;;;;;;4.47;4.03;;;;;;;6.41;66.04;99698.41;2048273;28;20128;-61
2021/05/04 02:33:21;;;;;;;4.43;4.00;;;;;;;6.42;66.16;99695.75;2054790;28;20027;-61
2021/05/04 02:34:21;;;;;;;4.97;4.20;;;;;;;6.46;66.09;99696.59;2054660;28;20034;-61
2021/05/04 02:35:21;;;;;;;5.00;4.10;;;;;;;6.52;65.40;99694.69;2050837;28;20030;-62
2021/05/04 02:36:22;;;;;;;6.00;4.50;;;;;;;6.45;65.72;99692.28;2050515;28;20022;-61
2021/05/04 02:37:22;;;;;;;5.03;4.30;;;;;;;6.42;65.83;99694.94;2050963;28;20781;-62
2021/05/04 02:38:22;;;;;;;4.63;4.03;;;;;;;6.46;65.58;99686.22;2049069;28;20034;-63
2021/05/04 02:39:23;;;;;;;6.73;4.90;;;;;;;6.52;65.47;99691.25;2052909;28;20031;-62
2021/05/04 02:40:23;;;;;;;4.90;4.30;;;;;;;6.46;65.57;99684.47;2049354;28;21005;-61
2021/05/04 02:41:24;;;;;;;7.20;4.30;;;;;;;6.46;65.60;99681.88;2047955;28;20094;-60
2021/05/04 02:42:24;;;;;;;5.97;4.50;;;;;;;6.45;65.64;99684.53;2046834;28;20035;-61
2021/05/04 02:43:25;;;;;;;4.30;3.90;;;;;;;6.44;65.66;99675.88;2051780;28;20027;-61
2021/05/04 02:44:25;;;;;;;4.70;3.97;;;;;;;6.44;65.63;99673.28;2050248;28;20038;-61
2021/05/04 02:45:25;;;;;;;4.63;4.10;;;;;;;6.45;65.38;99674.16;2049339;28;20110;-61
2021/05/04 02:46:29;;;;;;;5.70;4.03;;;;;;;6.58;64.94;99675.56;2051169;28;20447;-61
2021/05/04 02:47:29;;;;;;;4.47;3.97;;;;;;;6.54;65.09;99668.78;2054688;28;20022;-61
2021/05/04 02:48:33;;;;;;;7.07;4.20;;;;;;;6.42;65.45;99664.69;2053646;28;20033;-61
2021/05/04 02:49:33;;;;;;;5.85;3.72;;;;;;;6.38;65.66;99671.69;2053492;28;20027;-61
2021/05/04 02:50:34;;;;;;;4.53;3.80;;;;;;;6.37;65.83;99656.19;2052415;28;20038;-61
2021/05/04 02:51:34;;;;;;;4.33;3.73;;;;;;;6.43;65.49;99656.06;2053088;28;20035;-61
2021/05/04 02:52:34;;;;;;;5.47;4.30;;;;;;;6.52;65.12;99655.00;2052963;28;20058;-61
2021/05/04 02:53:35;;;;;;;4.67;3.70;;;;;;;6.53;64.44;99649.78;2051222;28;20069;-61
2021/05/04 02:54:36;;;;;;;4.38;3.95;;;;;;;6.59;64.77;99651.38;2050279;28;20031;-61
2021/05/04 02:55:36;;;;;;;9.80;4.00;;;;;;;6.61;64.31;99646.19;2049679;28;20089;-61
2021/05/04 02:56:37;;;;;;;4.78;3.60;;;;;;;6.59;64.22;99645.38;2052621;28;20037;-61
2021/05/04 02:57:37;;;;;;;6.27;3.70;;;;;;;6.51;64.47;99651.59;2052533;28;20594;-61
2021/05/04 02:58:38;;;;;;;5.17;3.20;;;;;;;6.59;64.06;99640.19;2051735;28;20034;-61
2021/05/04 02:59:38;;;;;;;5.13;3.70;;;;;;;6.70;63.64;99643.41;2050580;28;20667;-61
2021/05/04 03:00:38;;;;;;;4.00;3.60;;;;;;;6.72;63.57;99636.41;2048101;28;20114;-61
2021/05/04 03:01:38;;;;;;;4.57;3.47;;;;;;;6.76;63.34;99640.66;2052994;28;20049;-61
2021/05/04 03:02:39;;;;;;;3.63;3.27;;;;;;;6.73;63.48;99639.88;2053082;28;20054;-63
2021/05/04 03:03:40;;;;;;;4.50;3.13;;;;;;;6.74;63.28;99637.25;2050893;28;20110;-62
2021/05/04 03:04:40;;;;;;;4.40;3.33;;;;;;;6.79;63.08;99635.41;2048153;28;20044;-62
2021/05/04 03:05:41;;;;;;;3.70;3.40;;;;;;;6.81;62.87;99628.44;2047622;28;20456;-62
2021/05/04 03:06:41;;;;;;;4.30;3.50;;;;;;;6.79;62.93;99626.78;2051541;28;20503;-61
2021/05/04 03:07:41;;;;;;;5.00;3.33;;;;;;;6.80;63.04;99624.16;2050388;28;20036;-62
2021/05/04 03:08:42;;;;;;;4.00;3.03;;;;;;;6.77;63.24;99628.53;2051210;28;20042;-61
2021/05/04 03:09:42;;;;;;;3.57;3.07;;;;;;;6.83;62.63;99629.25;2050053;28;20596;-61
2021/05/04 03:10:42;;;;;;;4.00;3.03;;;;;;;6.77;62.97;99623.34;2053295;28;20391;-61
2021/05/04 03:11:43;;;;;;;6.10;3.67;;;;;;;6.80;62.87;99618.97;2050251;28;20035;-61
2021/05/04 03:12:43;;;;;;;4.90;3.40;;;;;;;6.81;63.10;99622.41;2049009;28;20122;-61
2021/05/04 03:13:44;;;;;;;3.93;3.30;;;;;;;6.90;62.60;99627.38;2053657;28;20038;-61
2021/05/04 03:14:44;;;;;;;4.73;3.13;;;;;;;6.90;62.57;99621.34;2047981;28;20035;-61
2021/05/04 03:15:44;;;;;;;4.43;3.30;;;;;;;6.89;62.50;99617.06;2052528;28;20447;-61
2021/05/04 03:16:45;;;;;;;4.33;3.30;;;;;;;7.03;62.04;99619.31;2053394;28;20027;-61
2021/05/04 03:17:45;;;;;;;3.97;3.33;;;;;;;6.90;62.34;99618.75;2049728;28;20030;-61
2021/05/04 03:18:45;;;;;;;5.87;2.93;;;;;;;6.99;62.04;99603.81;2053134;28;20089;-61
2021/05/04 03:19:45;;;;;;;4.23;3.03;;;;;;;6.99;61.79;99600.38;2050362;28;20031;-61
2021/05/04 03:20:48;;;;;;;4.23;3.70;;;;;;;7.05;61.52;99600.22;2051248;28;20548;-61
2021/05/04 03:21:49;;;;;;;3.53;2.92;;;;;;;6.96;61.99;99597.88;2050936;28;20097;-61
2021/05/04 03:22:49;;;;;;;4.97;3.43;;;;;;;6.98;61.99;99601.28;2048690;28;20039;-61
2021/05/04 03:23:49;;;;;;;3.97;2.90;;;;;;;7.03;61.76;99607.19;2051014;28;20125;-61
2021/05/04 03:24:50;;;;;;;3.80;3.03;;;;;;;7.05;61.38;99597.63;2052579;28;20054;-63
2021/05/04 03:25:51;;;;;;;3.37;3.07;;;;;;;7.11;61.15;99599.22;2054433;28;20384;-61
2021/05/04 03:26:51;;;;;;;3.65;3.00;;;;;;;7.12;61.02;99594.00;2051080;28;20043;-61
2021/05/04 03:27:54;;;;;;;3.83;3.00;;;;;;;7.08;61.09;99586.34;2047608;28;20122;-61
2021/05/04 03:28:54;;;;;;;4.53;3.08;;;;;;;7.04;61.22;99590.75;2051503;28;20027;-61
2021/05/04 03:29:54;;;;;;;3.20;2.73;;;;;;;7.00;61.62;99589.97;2051753;28;20090;-61
2021/05/04 03:30:54;;;;;;;4.57;2.90;;;;;;;6.96;61.78;99584.91;2054517;28;20034;-61
2021/05/04 03:31:55;;;;;;;2.90;2.60;;;;;;;7.02;61.54;99582.16;2048379;28;20030;-61
2021/05/04 03:32:55;;;;;;;3.20;2.90;;;;;;;7.10;61.28;99589.75;2047326;28;20370;-61
2021/05/04 03:33:56;;;;;;;3.93;3.00;;;;;;;7.08;61.42;99582.03;2053451;28;20051;-61
2021/05/04 03:34:56;;;;;;;5.60;2.70;;;;;;;7.16;61.28;99579.22;2054079;28;20129;-61
2021/05/04 03:35:56;;;;;;;3.63;2.90;;;;;;;7.12;61.09;99580.19;2049470;28;20057;-62
2021/05/04 03:36:56;;;;;;;3.13;2.70;;;;;;;7.06;61.44;99578.59;2047773;28;20027;-61
2021/05/04 03:37:57;;;;;;;3.97;2.90;;;;;;;7.01;61.64;99573.53;2048334;28;20038;-61
2021/05/04 03:38:57;;;;;;;3.10;2.80;;;;;;;6.99;61.84;99566.72;2052649;28;20015;-61
2021/05/04 03:39:58;;;;;;;4.45;2.88;;;;;;;7.04;61.46;99569.19;2055017;28;20037;-62
2021/05/04 03:40:58;;;;;;;3.73;2.60;;;;;;;7.13;61.23;99574.97;2053458;28;20151;-61
2021/05/04 03:41:58;;;;;;;6.63;3.00;;;;;;;7.14;61.21;99566.31;2048245;28;20101;-61
2021/05/04 03:42:59;;;;;;;7.57;2.83;;;;;;;7.19;60.83;99573.94;2054622;28;20285;-62
2021/05/04 03:44:00;;;;;;;3.40;2.83;;;;;;;7.24;60.88;99559.16;2052076;28;20037;-61
2021/05/04 03:45:00;;;;;;;5.33;2.50;;;;;;;7.20;60.95;99560.09;2052758;28;20054;-61
2021/05/04 03:46:00;;;;;;;3.30;2.80;;;;;;;7.20;60.85;99564.44;2051763;28;20030;-61
2021/05/04 03:47:01;;;;;;;3.23;2.70;;;;;;;7.29;60.44;99554.66;2047094;28;20467;-62
2021/05/04 03:48:01;;;;;;;6.83;2.90;;;;;;;7.22;60.70;99552.28;2054111;28;20050;-61
2021/05/04 03:49:02;;;;;;;3.10;2.63;;;;;;;7.23;60.75;99551.38;2053539;28;20529;-61
2021/05/04 03:50:03;;;;;;;3.55;2.50;;;;;;;7.22;60.69;99552.28;2054085;28;20019;-61
2021/05/04 03:51:06;;;;;;;3.10;2.50;;;;;;;7.18;61.11;99555.88;2049153;28;20081;-61
2021/05/04 03:52:06;;;;;;;3.20;2.40;;;;;;;7.20;61.16;99554.91;2048811;28;20047;-61
2021/05/04 03:53:07;;;;;;;2.77;2.53;;;;;;;7.29;61.18;99556.44;2054382;28;20023;-61
2021/05/04 03:54:08;;;;;;;2.90;2.60;;;;;;;7.25;61.28;99552.22;2050116;28;20027;-61
2021/05/04 03:55:10;;;;;;;3.07;2.70;;;;;;;7.22;61.36;99547.97;2049007;28;20054;-62
2021/05/04 03:56:10;;;;;;;2.97;2.63;;;;;;;7.37;61.13;99551.88;2054329;28;20027;-61
2021/05/04 03:57:11;;;;;;;4.20;2.83;;;;;;;7.24;61.39;99559.16;2052359;28;20022;-62
2021/05/04 03:58:11;;;;;;;3.03;2.70;;;;;;;7.21;61.48;99563.53;2049715;28;20479;-61
2021/05/04 03:59:11;;;;;;;3.97;2.60;;;;;;;7.18;61.89;99550.69;2054169;28;20774;-62
2021/05/04 04:00:13;;;;;;;3.23;2.70;;;;;;;7.09;62.45;99552.63;2051675;28;20086;-61
2021/05/04 04:01:13;;;;;;;;;;;;;;;7.09;62.42;99555.22;2051182;28;20019;-61
2021/05/04 04:02:14;;;;;;;3.00;2.70;;;;;;;7.10;62.83;99556.88;2052087;28;19914;-61
2021/05/04 04:03:14;;;;;;;7.00;3.10;;;;;;;7.07;62.76;99558.72;2047362;28;20139;-62
2021/05/04 04:04:14;;;;;;;7.33;3.03;;;;;;;7.05;62.78;99558.78;2053739;28;20027;-61
2021/05/04 04:05:15;;;;;;;3.90;3.07;;;;;;;6.99;63.36;99557.19;2054179;28;20027;-61
2021/05/04 04:06:16;;;;;;;4.63;3.23;;;;;;;6.91;63.76;99547.91;2053378;28;20059;-61
2021/05/04 04:07:16;;;;;;;4.32;2.95;;;;;;;6.90;63.96;99557.41;2050727;28;20079;-61
2021/05/04 04:08:17;;;;;;;4.68;2.97;;;;;;;6.92;63.88;99549.59;2051839;28;20489;-62
2021/05/04 04:09:17;;;;;;;5.40;3.40;;;;;;;6.82;64.35;99549.84;2048999;28;20694;-61
2021/05/04 04:10:17;;;;;;;3.53;3.20;;;;;;;6.84;64.46;99547.22;2049516;28;20383;-61
2021/05/04 04:11:17;;;;;;;4.40;3.23;;;;;;;6.79;64.58;99549.94;2052023;28;20058;-61
2021/05/04 04:12:18;;;;;;;3.30;2.97;;;;;;;6.77;64.78;99545.66;2049294;28;20031;-61
2021/05/04 04:13:18;;;;;;;6.43;3.43;;;;;;;6.80;64.83;99549.06;2047840;28;20038;-61
2021/05/04 04:14:18;;;;;;;5.53;3.27;;;;;;;6.78;64.77;99542.19;2051537;28;20022;-61
2021/05/04 04:15:19;;;;;;;5.97;3.20;;;;;;;6.68;65.05;99544.16;2053097;28;20018;-61
2021/05/04 04:16:19;;;;;;;3.60;3.30;;;;;;;6.69;65.15;99543.28;2050375;28;20031;-61
2021/05/04 04:17:21;;;;;;;5.93;3.37;;;;;;;6.61;65.43;99546.06;2048776;28;20110;-61
2021/05/04 04:18:21;;;;;;;4.55;3.42;;;;;;;6.74;65.23;99546.59;2047139;28;20622;-61
2021/05/04 04:19:21;;;;;;;7.13;3.70;;;;;;;6.67;65.05;99539.88;2054187;28;20066;-61
2021/05/04 04:20:22;;;;;;;4.17;3.77;;;;;;;6.74;64.91;99536.22;2055705;28;20058;-61
2021/05/04 04:21:22;;;;;;;5.43;3.17;;;;;;;6.67;65.27;99538.13;2056296;28;20102;-61
2021/05/04 04:22:24;;;;;;;3.50;3.20;;;;;;;6.60;65.65;99534.00;2056083;28;20027;-61
2021/05/04 04:23:24;;;;;;;4.45;3.63;;;;;;;6.66;65.40;99540.75;2055412;28;20030;-61
2021/05/04 04:24:25;;;;;;;4.40;3.40;;;;;;;6.63;65.33;99528.75;2054332;28;20114;-61
2021/05/04 04:25:25;;;;;;;5.73;3.40;;;;;;;6.58;65.53;99529.75;2051018;28;20048;-60
2021/05/04 04:26:25;;;;;;;4.17;3.53;;;;;;;6.61;65.42;99529.69;2051009;28;20379;-61
2021/05/04 04:27:26;;;;;;;4.60;3.70;;;;;;;6.56;65.71;99522.03;2050545;28;20518;-61
2021/05/04 04:28:26;;;;;;;4.03;3.40;;;;;;;6.55;65.93;99522.91;2052102;28;20040;-61
2021/05/04 04:29:27;;;;;;;6.57;4.00;;;;;;;6.57;65.67;99533.22;2053274;28;20023;-61
2021/05/04 04:30:27;;;;;;;5.33;3.60;;;;;;;6.60;65.54;99523.63;2054358;28;20015;-61
2021/05/04 04:31:27;;;;;;;5.63;3.87;;;;;;;6.57;65.89;99525.44;2051738;28;20066;-61
2021/05/04 04:32:28;;;;;;;7.50;3.47;;;;;;;6.53;65.80;99522.94;2054227;28;20023;-60
2021/05/04 04:33:28;;;;;;;5.13;3.60;;;;;;;6.53;66.05;99528.09;2061368;28;20030;-60
2021/05/04 04:34:28;;;;;;;7.37;4.40;;;;;;;6.59;65.81;99519.34;2056986;28;20034;-61
2021/05/04 04:35:29;;;;;;;5.40;3.93;;;;;;;6.59;65.63;99527.09;2052706;28;20176;-61
2021/05/04 04:36:29;;;;;;;4.07;3.67;;;;;;;6.59;65.87;99526.28;2055301;28;20101;-61
2021/05/04 04:37:29;;;;;;;4.20;3.67;;;;;;;6.57;65.65;99530.63;2054951;28;20470;-61
2021/05/04 04:38:30;;;;;;;4.47;4.07;;;;;;;6.65;65.47;99523.50;2054965;28;20471;-61
2021/05/04 04:39:30;;;;;;;8.30;4.57;;;;;;;6.58;66.16;99525.41;2053594;28;20033;-61
2021/05/04 04:40:31;;;;;;;5.37;3.97;;;;;;;6.63;65.83;99520.09;2053129;28;20134;-61
2021/05/04 04:41:31;;;;;;;4.53;3.70;;;;;;;6.69;65.49;99514.78;2050164;28;20023;-60
2021/05/04 04:42:31;;;;;;;5.47;4.83;;;;;;;6.80;65.27;99523.16;2053653;28;20038;-60
2021/05/04 04:43:32;;;;;;;7.93;5.00;;;;;;;6.77;65.19;99519.75;2052068;28;20070;-61
2021/05/04 04:44:33;;;;;;;6.63;4.60;;;;;;;6.80;65.14;99517.97;2050127;28;20026;-61
2021/05/04 04:45:33;;;;;;;6.50;4.30;;;;;;;6.82;65.22;99518.75;2048497;28;20035;-61
2021/05/04 04:46:40;;;;;;;4.23;3.80;;;;;;;6.89;64.79;99516.03;2046926;28;20444;-61
2021/05/04 04:47:40;;;;;;;5.03;4.53;;;;;;;6.99;64.70;99504.53;2052104;28;20042;-61
2021/05/04 04:48:40;;;;;;;5.07;4.57;;;;;;;7.00;64.31;99506.22;2052830;28;20088;-61